Doctortown, Georgia
Current Conditions -  °F | °C
As of 10:55 AM on Thursday 27 Nov 2014 (Local Time) from KJES Reporting Station
Clear Clear  
Wind Chill: 57°   Ceiling: Unl
Heat Index: 57°   Visibility: 10mi
Dew Point: 34°   Wind: 14mph
Humidity: 41%   Direction: 300°WNW
Pressure: 30.25"   Gusts: 30mph
Location:  31.5041°N, 81.8277°W
Report Text: KJES 271555Z AUTO 30012G26KT 10SM CLR 14/01 A3025 RMK AO2
Loading
Personal Weather Stations






























Interactive Weather Map New forecast layout! Learn more

10-Day Weather Forecast

Advertisements
Track Severe Weather on mobile